KOGB/OGB METAR and TAF weather

Enter ICAO airport designator
Station Type Date Time Source
KOGB METAR 2020/04/07 17:53 UTC NOAA

KOGB 071753Z AUTO 21007KT 10SM CLR 28/14 A2999 RMK AO2 SLP152 T02830144 10283 20167 58022


Station Type Date Time Source
KOGB Decoded METAR 2020/04/07 17:53 UTC NOAA

ORANGEBURG MUNICIPAL AIRPORT, SC, United States (KOGB) 33-28N 080-51W 59M
Apr 07, 2020 - 01:53 PM EDT / 2020.04.07 1753 UTC
Wind: from the SSW (210 degrees) at 8 MPH (7 KT):0
Visibility: 10 mile(s):0
Sky conditions: clear
Temperature: 82.9 F (28.3 C)
Dew Point: 57.9 F (14.4 C)
Relative Humidity: 42%
Pressure (altimeter): 29.99 in. Hg (1015 hPa)
Pressure tendency: 0.06 inches (2.2 hPa) lower than three hours ago
ob: KOGB 071753Z AUTO 21007KT 10SM CLR 28/14 A2999 RMK AO2 SLP152 T02830144 10283 20167 58022
cycle: 18

Station Type Date Time Source
KOGB TAF 2020/04/07 18:36 UTC NOAA

TAF KOGB 071734Z 0718/0818 26010G18KT P6SM SCT050 BKN250
FM080100 24008KT P6SM BKN150
FM081100 24007KT P6SM SCT025 BKN250

Example: see airport list